Time;durP1;ratioP1;P1;durP2;ratioP2;P2;SDS_P1;SDS_P2;PMS_P1;PMS_P2;Temp;Humidity;BMP_temperature;BMP_pressure;BME280_temperature;BME280_humidity;BME280_pressure;Samples;Min_cycle;Max_cycle;Signal;HPM_P1;HPM_P2
2022/02/25 00:01:16;;;;;;;1.98;0.60;;;;;;;5.09;66.16;100303.44;10314970;28;20076;-65
2022/02/25 00:06:19;;;;;;;1.52;0.47;;;;;;;5.12;66.43;100330.50;10315803;28;20056;-64
2022/02/25 00:11:21;;;;;;;1.73;0.40;;;;;;;4.98;67.12;100340.97;10317813;28;20100;-65
2022/02/25 00:16:22;;;;;;;1.35;0.60;;;;;;;4.86;67.99;100339.88;10313180;28;20168;-64
2022/02/25 00:21:24;;;;;;;2.10;0.75;;;;;;;5.02;67.03;100366.25;10315990;28;20420;-63
2022/02/25 00:26:25;;;;;;;1.58;0.93;;;;;;;4.85;67.33;100359.28;10321853;28;20572;-66
2022/02/25 00:31:27;;;;;;;3.10;0.70;;;;;;;4.89;67.49;100366.06;10321828;28;20046;-66
2022/02/25 00:36:29;;;;;;;1.75;0.88;;;;;;;4.65;67.45;100362.16;10315001;28;20144;-64
2022/02/25 00:41:30;;;;;;;1.92;0.82;;;;;;;4.71;67.44;100377.63;10310383;28;20057;-63
2022/02/25 00:46:31;;;;;;;2.60;1.23;;;;;;;4.84;68.14;100404.22;10312281;28;20135;-65
2022/02/25 00:51:33;;;;;;;2.70;0.63;;;;;;;4.90;67.16;100393.31;10309903;28;20128;-64
2022/02/25 00:56:34;;;;;;;2.38;0.45;;;;;;;4.76;67.49;100392.28;10314702;28;20042;-64
2022/02/25 01:01:37;;;;;;;2.00;0.70;;;;;;;4.75;68.16;100421.38;10312917;28;20501;-65
2022/02/25 01:06:38;;;;;;;2.80;0.93;;;;;;;4.83;68.28;100419.16;10314752;28;20050;-65
2022/02/25 01:11:40;;;;;;;1.92;0.82;;;;;;;4.89;68.39;100424.09;10324570;28;20050;-64
2022/02/25 01:16:41;;;;;;;3.05;0.90;;;;;;;4.76;67.81;100428.38;10316082;28;20072;-64
2022/02/25 01:21:43;;;;;;;2.08;1.15;;;;;;;4.92;67.42;100433.66;10312594;28;20046;-65
2022/02/25 01:26:44;;;;;;;2.45;0.77;;;;;;;4.73;67.88;100416.19;10312234;28;20128;-65
2022/02/25 01:31:46;;;;;;;1.70;0.93;;;;;;;4.65;67.94;100421.00;10312978;28;20066;-64
2022/02/25 01:36:47;;;;;;;1.38;0.47;;;;;;;4.59;67.48;100432.75;10315018;28;20046;-66
2022/02/25 01:41:49;;;;;;;1.90;0.85;;;;;;;4.63;66.95;100437.84;10313727;28;20058;-64
2022/02/25 01:47:03;;;;;;;1.02;0.60;;;;;;;4.54;66.69;100440.03;10316583;28;20415;-64
2022/02/25 01:52:12;;;;;;;3.20;0.67;;;;;;;4.44;66.87;100441.44;10311091;28;20054;-64
2022/02/25 01:57:16;;;;;;;2.63;1.00;;;;;;;4.42;67.11;100445.94;10312115;28;20297;-65
2022/02/25 02:02:17;;;;;;;2.95;1.08;;;;;;;4.45;67.13;100451.06;10309380;28;20129;-66
2022/02/25 02:07:19;;;;;;;4.35;1.50;;;;;;;4.43;66.29;100443.22;10308896;28;20464;-66
2022/02/25 02:12:20;;;;;;;2.92;1.40;;;;;;;4.53;66.45;100455.94;10311116;28;20634;-66
2022/02/25 02:17:21;;;;;;;3.85;1.48;;;;;;;4.57;66.54;100473.31;10309070;28;20057;-62
2022/02/25 02:22:24;;;;;;;3.33;1.00;;;;;;;4.50;66.04;100467.47;10316572;28;20132;-64
2022/02/25 02:28:17;;;;;;;4.80;0.90;;;;;;;4.52;65.76;100483.22;10311870;28;20633;-64
2022/02/25 02:32:48;;;;;;;4.10;0.90;;;;;;;4.53;65.87;100480.50;10312181;28;20259;-64
2022/02/25 02:37:49;;;;;;;2.58;0.65;;;;;;;4.48;65.48;100486.97;10309973;28;20053;-63
2022/02/25 02:42:51;;;;;;;7.00;1.55;;;;;;;4.38;65.52;100491.84;10321897;28;20740;-63
2022/02/25 02:47:52;;;;;;;2.45;0.50;;;;;;;4.31;65.53;100490.44;10312755;28;20058;-63
2022/02/25 02:52:53;;;;;;;2.33;0.90;;;;;;;4.25;65.68;100502.16;10312260;28;20605;-64
2022/02/25 02:57:55;;;;;;;1.73;0.50;;;;;;;4.12;65.65;100495.78;10311432;28;20061;-64
2022/02/25 03:02:56;;;;;;;3.58;1.13;;;;;;;4.22;65.07;100513.69;10310690;28;20423;-63
2022/02/25 03:07:59;;;;;;;3.22;0.90;;;;;;;4.14;65.23;100515.84;10318412;28;20061;-64
2022/02/25 03:13:01;;;;;;;2.30;0.85;;;;;;;4.08;65.01;100513.50;10320723;28;20085;-65
2022/02/25 03:18:03;;;;;;;1.75;0.57;;;;;;;4.10;65.91;100532.75;10317327;28;25183;-63
2022/02/25 03:23:04;;;;;;;3.05;0.85;;;;;;;3.89;65.68;100511.78;10319195;28;20145;-64
2022/02/25 03:28:06;;;;;;;4.20;1.10;;;;;;;3.93;66.26;100538.81;10319948;28;20129;-65
2022/02/25 03:33:07;;;;;;;3.63;1.00;;;;;;;3.99;66.46;100549.06;10319969;28;20759;-64
2022/02/25 03:38:09;;;;;;;2.45;1.00;;;;;;;4.12;66.10;100553.75;10318605;28;20469;-63
2022/02/25 03:43:11;;;;;;;1.83;0.80;;;;;;;4.11;66.38;100550.25;10320306;28;20100;-68
2022/02/25 03:48:12;;;;;;;3.63;0.60;;;;;;;3.89;66.33;100546.03;10320123;28;20482;-67
2022/02/25 03:53:14;;;;;;;4.93;1.13;;;;;;;3.87;66.64;100554.94;10321442;28;20537;-64
2022/02/25 03:58:15;;;;;;;2.72;0.75;;;;;;;3.83;66.71;100554.22;10317887;28;20054;-64
2022/02/25 04:03:16;;;;;;;3.95;1.27;;;;;;;3.90;67.15;100565.31;10318267;28;20129;-64
2022/02/25 04:08:18;;;;;;;2.70;1.25;;;;;;;4.01;67.20;100578.00;10317905;28;20121;-66
2022/02/25 04:13:19;;;;;;;3.03;1.08;;;;;;;4.02;67.11;100574.41;10313995;28;20057;-63
2022/02/25 04:18:21;;;;;;;2.08;1.08;;;;;;;3.57;67.75;100541.44;10317593;28;20128;-66
2022/02/25 04:23:23;;;;;;;4.18;0.93;;;;;;;3.89;67.84;100580.28;10315609;28;20588;-66
2022/02/25 04:28:24;;;;;;;4.82;1.10;;;;;;;3.92;68.38;100586.31;10316116;28;20046;-66
2022/02/25 04:33:26;;;;;;;1.98;1.15;;;;;;;3.71;68.00;100571.47;10318397;28;20128;-64
2022/02/25 04:38:28;;;;;;;3.92;1.70;;;;;;;3.71;68.41;100578.53;10316358;28;20189;-64
2022/02/25 04:43:30;;;;;;;6.30;1.02;;;;;;;3.49;69.12;100586.53;10314001;28;20693;-64
2022/02/25 04:48:31;;;;;;;3.28;0.95;;;;;;;3.27;69.68;100570.88;10318053;28;20065;-64
2022/02/25 04:53:33;;;;;;;4.10;1.00;;;;;;;3.28;69.77;100567.31;10318065;28;20130;-64
2022/02/25 04:58:34;;;;;;;4.50;0.98;;;;;;;3.36;69.61;100592.38;10330538;28;20129;-66
2022/02/25 05:03:37;;;;;;;3.35;1.10;;;;;;;3.29;69.70;100584.81;10315068;28;20470;-65
2022/02/25 05:08:38;;;;;;;6.63;1.38;;;;;;;3.27;70.14;100592.78;10307587;28;20050;-65
2022/02/25 05:13:40;;;;;;;5.55;1.55;;;;;;;3.43;69.61;100582.41;10314322;28;20057;-65
2022/02/25 05:24:01;;;;;;;10.05;2.40;;;;;;;3.57;68.97;100596.72;10316725;28;20046;-66
2022/02/25 05:29:03;;;;;;;4.03;1.17;;;;;;;3.60;68.96;100615.00;10313435;28;20058;-65
2022/02/25 05:34:04;;;;;;;4.28;1.42;;;;;;;3.47;68.97;100623.47;10314656;28;20580;-64
2022/02/25 05:39:06;;;;;;;3.08;1.20;;;;;;;3.40;69.55;100643.06;10311298;28;20137;-65
2022/02/25 05:44:07;;;;;;;4.65;1.55;;;;;;;3.43;69.44;100655.25;10313753;28;20060;-65
2022/02/25 05:49:08;;;;;;;5.35;1.30;;;;;;;3.28;70.00;100664.69;10313766;28;20417;-65
2022/02/25 05:54:10;;;;;;;3.38;0.93;;;;;;;3.21;70.43;100671.13;10310173;28;20045;-63
2022/02/25 05:59:11;;;;;;;5.05;1.30;;;;;;;3.14;70.97;100671.38;10300493;28;20061;-64
2022/02/25 06:04:13;;;;;;;7.70;1.73;;;;;;;3.13;71.20;100685.44;10307178;28;20076;-64
2022/02/25 06:09:14;;;;;;;4.78;1.27;;;;;;;3.18;70.97;100688.75;10303780;28;20141;-66
2022/02/25 06:14:15;;;;;;;2.42;1.88;;;;;;;3.08;71.31;100679.53;10306541;28;20189;-64
2022/02/25 06:19:17;;;;;;;6.15;1.98;;;;;;;3.02;71.65;100677.19;10302913;28;20049;-63
2022/02/25 06:24:18;;;;;;;8.15;1.90;;;;;;;3.12;71.04;100694.28;10302960;28;20320;-63
2022/02/25 06:29:20;;;;;;;7.70;2.00;;;;;;;3.08;71.45;100687.44;10307814;28;20050;-65
2022/02/25 06:34:21;;;;;;;6.38;1.65;;;;;;;3.13;71.81;100705.66;10324257;28;20065;-65
2022/02/25 06:39:23;;;;;;;7.00;1.63;;;;;;;3.03;72.04;100710.44;10321037;28;20061;-65
2022/02/25 06:44:25;;;;;;;5.50;2.40;;;;;;;2.98;72.16;100707.16;10334832;28;20053;-65
2022/02/25 06:49:26;;;;;;;5.28;2.17;;;;;;;3.19;71.70;100721.16;10324770;28;20054;-66
2022/02/25 06:54:27;;;;;;;4.03;1.80;;;;;;;3.11;71.88;100713.59;10322807;28;20676;-66
2022/02/25 06:59:29;;;;;;;4.40;2.15;;;;;;;3.25;71.63;100733.22;10319378;28;20060;-65
2022/02/25 07:04:30;;;;;;;5.93;1.30;;;;;;;3.42;72.02;100728.06;10324305;28;20118;-65
2022/02/25 07:09:32;;;;;;;6.95;1.60;;;;;;;3.68;71.91;100734.00;10324644;28;20344;-65
2022/02/25 07:14:34;;;;;;;7.35;2.90;;;;;;;3.66;70.23;100741.97;10328919;28;20062;-60
2022/02/25 07:19:35;;;;;;;5.93;1.50;;;;;;;3.65;69.95;100742.88;10329338;28;20062;-65
2022/02/25 07:24:36;;;;;;;5.72;2.55;;;;;;;3.72;69.79;100751.34;10324495;28;20113;-65
2022/02/25 07:29:38;;;;;;;6.00;1.50;;;;;;;3.87;69.61;100755.09;10314027;28;20053;-61
2022/02/25 07:34:39;;;;;;;5.50;1.73;;;;;;;4.01;68.72;100757.97;10314164;28;20324;-61
2022/02/25 07:39:41;;;;;;;5.45;2.22;;;;;;;4.26;68.15;100759.47;10312622;28;20156;-60
2022/02/25 07:44:42;;;;;;;10.90;2.38;;;;;;;4.40;67.09;100748.31;10319701;28;20091;-61
2022/02/25 07:49:45;;;;;;;6.07;2.63;;;;;;;4.46;67.07;100757.69;10309698;28;20053;-61
2022/02/25 07:54:47;;;;;;;5.45;1.63;;;;;;;4.63;66.00;100783.28;10313968;28;20042;-61
2022/02/25 07:59:48;;;;;;;5.70;2.20;;;;;;;4.62;65.69;100794.75;10314236;28;20054;-60
2022/02/25 08:04:50;;;;;;;5.82;1.83;;;;;;;4.41;66.24;100750.00;10322440;28;20053;-60
2022/02/25 08:10:05;;;;;;;9.50;3.47;;;;;;;4.91;65.03;100786.31;10314765;28;20050;-61
2022/02/25 08:15:12;;;;;;;5.93;2.38;;;;;;;5.11;64.29;100792.41;10320110;28;20054;-61
2022/02/25 08:20:14;;;;;;;11.30;2.53;;;;;;;5.21;64.57;100798.94;10312379;28;20052;-61
2022/02/25 08:25:16;;;;;;;6.00;2.60;;;;;;;4.98;64.41;100767.53;10313334;28;20168;-60
2022/02/25 08:30:18;;;;;;;6.75;2.50;;;;;;;5.50;62.68;100775.50;10319083;28;20068;-60
2022/02/25 08:35:20;;;;;;;11.00;2.88;;;;;;;5.62;62.17;100777.50;10310282;28;20060;-60
2022/02/25 08:40:21;;;;;;;6.10;2.75;;;;;;;5.88;61.62;100772.66;10316856;28;20128;-62
2022/02/25 08:45:23;;;;;;;9.82;4.22;;;;;;;6.52;59.23;100763.06;10313563;28;20057;-61
2022/02/25 08:50:25;;;;;;;8.63;3.55;;;;;;;6.73;58.27;100787.47;10320756;28;20054;-64
2022/02/25 08:55:28;;;;;;;7.07;3.10;;;;;;;6.51;59.79;100779.03;10314794;28;20066;-62
2022/02/25 09:00:30;;;;;;;8.25;2.50;;;;;;;6.85;57.62;100787.72;10308848;28;21373;-60
2022/02/25 09:05:32;;;;;;;10.02;2.90;;;;;;;6.53;57.99;100761.25;10313140;28;20092;-61
2022/02/25 09:10:33;;;;;;;4.90;1.88;;;;;;;6.68;58.00;100773.66;10321543;28;20065;-60
2022/02/25 09:15:35;;;;;;;5.32;2.13;;;;;;;6.64;57.85;100769.47;10315197;28;20068;-61
2022/02/25 09:20:38;;;;;;;5.15;2.55;;;;;;;6.48;59.46;100771.25;10313173;28;20058;-61
2022/02/25 09:25:40;;;;;;;6.63;3.15;;;;;;;6.31;59.25;100769.53;10327025;28;20054;-61
2022/02/25 09:30:42;;;;;;;12.65;3.13;;;;;;;6.29;59.88;100776.69;10318556;28;20058;-66
2022/02/25 09:35:43;;;;;;;9.25;3.53;;;;;;;5.99;59.84;100762.41;10317368;28;20056;-63
2022/02/25 09:40:45;;;;;;;10.52;2.67;;;;;;;5.86;60.41;100774.53;10327671;28;20064;-63
2022/02/25 09:45:46;;;;;;;11.73;2.50;;;;;;;5.72;61.31;100782.31;10311894;28;20053;-63
2022/02/25 09:50:51;;;;;;;10.25;4.07;;;;;;;5.53;61.99;100780.63;10311465;28;20068;-62
2022/02/25 09:55:53;;;;;;;;;;;;;;;5.64;62.41;100785.34;10323210;28;20430;-62
2022/02/25 10:00:54;;;;;;;8.80;3.30;;;;;;;5.93;61.98;100770.63;10322324;28;19921;-62
2022/02/25 10:06:03;;;;;;;11.27;3.70;;;;;;;6.12;61.26;100769.66;10322660;28;20061;-63
2022/02/25 10:11:05;;;;;;;10.50;3.60;;;;;;;6.23;60.97;100783.19;10327098;28;20059;-63
2022/02/25 10:16:10;;;;;;;9.38;2.58;;;;;;;6.17;59.76;100789.66;10324287;28;20057;-62
2022/02/25 10:21:13;;;;;;;5.50;2.28;;;;;;;5.97;60.81;100803.91;10316308;28;20905;-62
2022/02/25 10:26:17;;;;;;;7.60;2.08;;;;;;;5.60;60.25;100747.69;10324320;28;20117;-62
2022/02/25 10:31:26;;;;;;;9.68;2.63;;;;;;;5.90;60.73;100797.22;10321818;28;20122;-62
2022/02/25 10:36:44;;;;;;;9.60;2.70;;;;;;;6.00;60.41;100789.69;10334532;28;20068;-61
2022/02/25 10:42:03;;;;;;;7.05;2.83;;;;;;;5.91;60.89;100777.75;10372156;28;21812;-63
2022/02/25 10:47:22;;;;;;;8.45;2.75;;;;;;;5.93;61.70;100797.06;10342486;28;20109;-63
2022/02/25 10:52:33;;;;;;;9.52;3.00;;;;;;;5.94;61.08;100803.19;10370447;28;20042;-63
2022/02/25 10:57:36;;;;;;;9.88;3.00;;;;;;;6.17;60.66;100789.66;10385744;28;20057;-61
2022/02/25 11:02:47;;;;;;;6.68;2.65;;;;;;;6.01;60.75;100789.59;10371876;28;20077;-60
2022/02/25 11:07:52;;;;;;;7.80;2.22;;;;;;;5.90;60.99;100791.94;10367483;28;20105;-59
2022/02/25 11:12:55;;;;;;;6.18;2.05;;;;;;;5.92;60.43;100797.97;10351577;28;20138;-63
2022/02/25 11:17:58;;;;;;;5.80;3.38;;;;;;;5.91;60.51;100782.22;10386701;28;20076;-62
2022/02/25 11:23:02;;;;;;;8.95;2.92;;;;;;;5.87;61.11;100802.66;10401338;28;20045;-62
2022/02/25 11:28:05;;;;;;;13.23;4.53;;;;;;;5.84;61.58;100814.25;10402703;28;20049;-63
2022/02/25 11:33:19;;;;;;;6.88;2.90;;;;;;;5.84;60.89;100800.19;10401677;28;20057;-64
2022/02/25 11:38:40;;;;;;;11.25;4.57;;;;;;;5.92;60.74;100800.63;10398986;28;20057;-62
2022/02/25 11:43:46;;;;;;;8.82;2.50;;;;;;;5.95;61.04;100816.31;10361720;28;20054;-61
2022/02/25 11:48:55;;;;;;;4.65;2.28;;;;;;;5.96;61.43;100812.75;10331775;28;20056;-61
2022/02/25 11:59:34;;;;;;;4.78;2.00;;;;;;;6.02;62.66;100832.75;10373608;28;20140;-62
2022/02/25 12:04:39;;;;;;;10.73;2.50;;;;;;;6.17;62.63;100836.34;10368255;28;20053;-62
2022/02/25 12:09:57;;;;;;;10.30;2.67;;;;;;;6.29;61.93;100838.38;10370810;28;20065;-62
2022/02/25 12:15:04;;;;;;;7.03;2.53;;;;;;;6.44;62.14;100838.47;10369993;28;20053;-64
2022/02/25 12:20:26;;;;;;;6.78;2.47;;;;;;;6.60;60.79;100844.63;10374420;28;20054;-65
2022/02/25 12:25:55;;;;;;;7.65;2.70;;;;;;;6.94;59.04;100836.66;10361775;28;20053;-63
2022/02/25 12:31:04;;;;;;;7.75;1.77;;;;;;;6.67;60.07;100838.06;10362609;28;20046;-64
2022/02/25 12:36:16;;;;;;;8.20;2.50;;;;;;;6.78;59.78;100836.63;10360495;28;20061;-63
2022/02/25 12:41:21;;;;;;;10.40;2.47;;;;;;;7.58;58.25;100834.72;10365246;28;20216;-63
2022/02/25 12:46:25;;;;;;;6.75;1.80;;;;;;;8.49;54.98;100832.78;10358054;28;20045;-63
2022/02/25 12:51:27;;;;;;;8.17;3.53;;;;;;;14.63;40.53;100817.91;10356661;28;20064;-62
2022/02/25 12:56:34;;;;;;;7.50;2.47;;;;;;;21.80;28.47;100811.34;10362055;28;20438;-64
2022/02/25 13:01:38;;;;;;;6.32;2.75;;;;;;;24.31;24.00;100820.88;10363344;28;20046;-62
2022/02/25 13:06:41;;;;;;;6.78;2.38;;;;;;;22.28;25.95;100824.59;10362607;28;20080;-63
2022/02/25 13:11:58;;;;;;;4.57;1.97;;;;;;;16.60;32.49;100814.97;10360247;28;20050;-61
2022/02/25 13:17:19;;;;;;;7.28;2.47;;;;;;;13.24;38.60;100831.50;10379632;28;20079;-61
2022/02/25 13:22:26;;;;;;;8.35;2.35;;;;;;;11.03;44.00;100808.56;10394481;28;20052;-61
2022/02/25 13:27:35;;;;;;;6.47;2.25;;;;;;;16.94;33.75;100795.53;10391439;28;20058;-62
2022/02/25 13:32:38;;;;;;;6.43;2.20;;;;;;;13.29;39.23;100812.44;10398208;28;20053;-61
2022/02/25 13:37:53;;;;;;;5.35;2.10;;;;;;;11.22;43.92;100812.56;10391840;28;20053;-61
2022/02/25 13:42:55;;;;;;;7.93;2.17;;;;;;;10.07;46.06;100803.84;10392852;28;20041;-60
2022/02/25 13:53:38;;;;;;;9.30;2.40;;;;;;;8.92;49.41;100820.41;10389154;28;20104;-62
2022/02/25 13:58:39;;;;;;;6.85;1.83;;;;;;;8.69;52.20;100808.59;10376642;28;20375;-63
2022/02/25 14:03:41;;;;;;;6.70;1.80;;;;;;;8.56;52.16;100811.19;10359907;28;20049;-62
2022/02/25 14:08:42;;;;;;;6.50;2.10;;;;;;;8.26;53.57;100817.44;10348139;28;20050;-62
2022/02/25 14:13:44;;;;;;;9.38;2.50;;;;;;;8.03;56.47;100842.69;10357394;28;20057;-63
2022/02/25 14:18:47;;;;;;;10.82;3.17;;;;;;;7.93;58.75;100856.50;10351997;28;20076;-61
2022/02/25 14:23:48;;;;;;;8.60;2.83;;;;;;;8.09;61.96;100858.22;10360637;28;20077;-64
2022/02/25 14:28:50;;;;;;;5.40;2.05;;;;;;;14.63;46.30;100825.13;10354785;28;20041;-65
2022/02/25 14:33:51;;;;;;;6.53;2.20;;;;;;;12.87;48.05;100823.84;10352472;28;20052;-63
2022/02/25 14:38:57;;;;;;;7.00;1.88;;;;;;;11.72;47.98;100809.69;10357925;28;20107;-63
2022/02/25 14:44:10;;;;;;;9.15;2.25;;;;;;;10.46;51.04;100825.16;10356164;28;20152;-61
2022/02/25 14:49:12;;;;;;;6.40;2.50;;;;;;;11.05;49.01;100825.31;10355749;28;20104;-62
2022/02/25 14:54:14;;;;;;;4.95;2.10;;;;;;;10.81;49.76;100841.28;10350892;28;20406;-61
2022/02/25 14:59:15;;;;;;;6.20;2.08;;;;;;;13.35;43.04;100831.50;10360202;28;20053;-62
2022/02/25 15:04:16;;;;;;;6.35;1.50;;;;;;;12.64;43.45;100829.22;10357334;28;20349;-61
2022/02/25 15:09:18;;;;;;;5.88;2.00;;;;;;;11.04;46.52;100833.41;10351688;28;20050;-62
2022/02/25 15:14:23;;;;;;;7.60;2.20;;;;;;;10.58;47.81;100841.13;10362075;28;20054;-62
2022/02/25 15:19:25;;;;;;;5.93;1.60;;;;;;;9.74;49.85;100842.44;10354261;28;20060;-60
2022/02/25 15:24:27;;;;;;;4.55;1.70;;;;;;;9.30;50.36;100830.34;10332270;28;20105;-60
2022/02/25 15:29:29;;;;;;;5.38;1.77;;;;;;;8.77;51.07;100831.06;10326776;28;20053;-61
2022/02/25 15:34:31;;;;;;;5.15;1.40;;;;;;;8.35;52.41;100834.56;10316321;28;20061;-61
2022/02/25 15:39:33;;;;;;;5.68;1.42;;;;;;;8.06;52.34;100832.78;10315987;28;20091;-61
2022/02/25 15:44:35;;;;;;;3.33;1.52;;;;;;;7.79;54.24;100896.22;10321474;28;20058;-61
2022/02/25 15:49:37;;;;;;;3.30;0.75;;;;;;;6.69;63.29;100939.38;10311241;28;20049;-61
2022/02/25 15:54:39;;;;;;;2.88;0.60;;;;;;;6.31;66.40;100947.53;10342801;28;20117;-60
2022/02/25 15:59:41;;;;;;;0.85;0.40;;;;;;;6.42;63.89;100943.50;10341943;28;20781;-60
2022/02/25 16:04:43;;;;;;;2.10;0.50;;;;;;;6.07;65.32;100951.44;10344104;28;20042;-60
2022/02/25 16:09:45;;;;;;;1.75;0.55;;;;;;;6.32;66.89;100973.06;10345020;28;20049;-62
2022/02/25 16:14:48;;;;;;;3.75;1.00;;;;;;;6.64;65.88;100974.97;10345404;28;20050;-61
2022/02/25 16:19:49;;;;;;;2.25;0.65;;;;;;;6.20;67.97;100981.63;10371912;28;20112;-60
2022/02/25 16:24:51;;;;;;;2.42;0.95;;;;;;;5.81;69.42;100970.28;10349527;28;20135;-60
2022/02/25 16:29:53;;;;;;;2.97;0.80;;;;;;;6.00;70.20;100994.06;10343202;28;20053;-60
2022/02/25 16:34:55;;;;;;;5.70;1.15;;;;;;;6.37;67.54;101013.34;10347281;28;20631;-60
2022/02/25 16:39:56;;;;;;;4.93;1.38;;;;;;;6.09;67.91;101018.31;10340724;28;20430;-62
2022/02/25 16:44:58;;;;;;;2.83;1.10;;;;;;;5.95;67.18;101006.59;10344996;28;20056;-62
2022/02/25 16:49:59;;;;;;;5.13;1.20;;;;;;;6.02;67.36;101012.47;10351343;28;20145;-62
2022/02/25 16:55:07;;;;;;;3.13;1.27;;;;;;;5.89;68.00;100993.69;10352211;28;20056;-61
2022/02/25 17:00:09;;;;;;;2.67;1.30;;;;;;;6.07;66.60;101015.75;10353153;28;20128;-62
2022/02/25 17:05:11;;;;;;;4.53;1.60;;;;;;;6.15;66.39;101041.78;10374952;28;20053;-62
2022/02/25 17:10:12;;;;;;;2.97;1.20;;;;;;;6.05;67.08;101059.91;10327868;28;20095;-65
2022/02/25 17:15:14;;;;;;;3.33;1.13;;;;;;;6.08;66.52;101080.03;10325414;28;20400;-62
2022/02/25 17:20:15;;;;;;;6.78;1.83;;;;;;;6.14;66.70;101095.56;10322196;28;20143;-62
2022/02/25 17:25:17;;;;;;;3.97;1.67;;;;;;;6.06;66.91;101109.16;10327595;28;20101;-62
2022/02/25 17:30:18;;;;;;;3.67;1.55;;;;;;;5.97;67.29;101099.88;10319248;28;20227;-61
2022/02/25 17:35:20;;;;;;;6.15;3.33;;;;;;;6.09;67.72;101119.59;10316230;28;20526;-62
2022/02/25 17:40:21;;;;;;;5.63;2.22;;;;;;;6.07;67.74;101110.06;10315232;28;20539;-62
2022/02/25 17:45:23;;;;;;;6.95;2.03;;;;;;;6.18;67.79;101139.44;10317416;28;20329;-62
2022/02/25 17:50:24;;;;;;;4.65;1.70;;;;;;;6.04;67.93;101136.63;10317136;28;20128;-65
2022/02/25 17:55:26;;;;;;;5.68;2.65;;;;;;;6.09;68.29;101134.59;10316003;28;20559;-61
2022/02/25 18:00:27;;;;;;;6.60;1.92;;;;;;;5.86;68.12;101128.59;10318984;28;20129;-62
2022/02/25 18:05:29;;;;;;;6.22;2.03;;;;;;;5.94;68.67;101133.50;10316605;28;20195;-60
2022/02/25 18:10:30;;;;;;;4.30;1.63;;;;;;;5.89;68.24;101123.16;10309989;28;20405;-61
2022/02/25 18:15:34;;;;;;;5.85;1.90;;;;;;;5.99;68.53;101148.25;10308823;28;20550;-61
2022/02/25 18:20:35;;;;;;;4.03;1.80;;;;;;;5.90;68.28;101143.38;10311680;28;20149;-61
2022/02/25 18:25:37;;;;;;;5.82;2.15;;;;;;;6.00;68.28;101142.06;10310471;28;20147;-61
2022/02/25 18:30:40;;;;;;;2.28;1.00;;;;;;;6.07;67.44;101169.03;10312065;28;20484;-61
2022/02/25 18:35:42;;;;;;;3.55;1.67;;;;;;;6.08;67.82;101170.78;10316092;28;20133;-61
2022/02/25 18:40:43;;;;;;;2.17;1.15;;;;;;;6.33;66.36;101180.16;10327900;28;20150;-61
2022/02/25 18:45:45;;;;;;;3.72;1.45;;;;;;;6.19;66.83;101146.47;10318608;28;20100;-61
2022/02/25 18:50:47;;;;;;;2.47;1.35;;;;;;;6.28;66.84;101192.75;10319220;28;20559;-61
2022/02/25 18:55:48;;;;;;;2.58;1.08;;;;;;;6.13;66.46;101194.34;10317586;28;20042;-61
2022/02/25 19:00:50;;;;;;;3.10;1.50;;;;;;;5.93;66.78;101190.81;10318382;28;20071;-62
2022/02/25 19:05:52;;;;;;;3.65;1.60;;;;;;;5.83;67.44;101213.28;10316080;28;20350;-60
2022/02/25 19:10:57;;;;;;;2.75;1.10;;;;;;;5.84;67.42;101226.44;10319534;28;20931;-62
2022/02/25 19:15:59;;;;;;;1.35;1.00;;;;;;;5.80;67.54;101230.13;10314062;28;20053;-61
2022/02/25 19:21:05;;;;;;;4.07;1.52;;;;;;;5.57;66.98;101238.22;10325522;28;20054;-62
2022/02/25 19:26:06;;;;;;;2.78;1.20;;;;;;;5.59;68.17;101246.94;10315730;28;20611;-62
2022/02/25 19:31:08;;;;;;;2.35;1.05;;;;;;;5.52;68.06;101251.63;10315647;28;20137;-61
2022/02/25 19:36:09;;;;;;;4.05;1.70;;;;;;;5.33;68.33;101241.03;10318579;28;20837;-61
2022/02/25 19:41:11;;;;;;;4.75;1.63;;;;;;;5.26;69.25;101256.25;10315777;28;20058;-62
2022/02/25 19:46:13;;;;;;;3.42;1.40;;;;;;;4.96;70.61;101267.16;10317527;28;20125;-65
2022/02/25 19:51:15;;;;;;;2.70;2.13;;;;;;;5.37;69.83;101278.69;10314706;28;20049;-62
2022/02/25 19:56:16;;;;;;;6.03;5.03;;;;;;;5.41;69.58;101275.00;10312632;28;20073;-61
2022/02/25 20:01:18;;;;;;;3.90;1.70;;;;;;;5.40;69.95;101283.84;10314159;28;20046;-62
2022/02/25 20:06:20;;;;;;;1.98;1.42;;;;;;;5.43;69.19;101278.44;10312474;28;20047;-62
2022/02/25 20:11:21;;;;;;;3.95;2.38;;;;;;;5.19;70.19;101302.28;10314749;28;21066;-62
2022/02/25 20:16:23;;;;;;;2.22;1.80;;;;;;;5.15;71.00;101311.28;10317000;28;20049;-61
2022/02/25 20:21:24;;;;;;;2.38;1.73;;;;;;;5.13;70.00;101295.50;10313567;28;20082;-61
2022/02/25 20:26:26;;;;;;;3.22;2.10;;;;;;;5.20;70.40;101322.50;10311544;28;20043;-62
2022/02/25 20:31:28;;;;;;;4.65;3.00;;;;;;;5.34;70.17;101321.06;10312267;28;20054;-62
2022/02/25 20:36:29;;;;;;;4.38;2.88;;;;;;;5.25;70.01;101298.53;10311923;28;20049;-62
2022/02/25 20:41:31;;;;;;;4.30;2.47;;;;;;;5.30;70.63;101328.28;10311946;28;20133;-62
2022/02/25 20:46:33;;;;;;;4.88;3.25;;;;;;;5.23;71.07;101338.22;10313034;28;20088;-61
2022/02/25 20:51:34;;;;;;;4.38;3.45;;;;;;;5.27;70.88;101331.91;10319655;28;20062;-61
2022/02/25 20:56:36;;;;;;;3.17;2.83;;;;;;;5.27;71.02;101347.72;10317049;28;20126;-61
2022/02/25 21:01:38;;;;;;;3.53;3.00;;;;;;;5.18;70.74;101329.63;10321376;28;20125;-62
2022/02/25 21:06:40;;;;;;;7.82;5.03;;;;;;;5.34;70.73;101366.81;10310423;28;20102;-61
2022/02/25 21:11:45;;;;;;;4.93;3.28;;;;;;;5.54;69.60;101373.94;10309293;28;20080;-63
2022/02/25 21:16:47;;;;;;;7.15;4.15;;;;;;;5.53;69.52;101374.00;10317284;28;20650;-63
2022/02/25 21:21:48;;;;;;;4.38;3.08;;;;;;;5.59;69.44;101398.34;10307974;28;20047;-63
2022/02/25 21:26:50;;;;;;;4.88;3.67;;;;;;;5.63;69.96;101405.25;10314707;28;20058;-66
2022/02/25 21:31:51;;;;;;;5.28;3.50;;;;;;;5.58;70.15;101409.00;10310985;28;20129;-63
2022/02/25 21:36:53;;;;;;;6.32;3.60;;;;;;;5.45;70.38;101419.19;10314724;28;20327;-63
2022/02/25 21:41:54;;;;;;;4.95;4.20;;;;;;;5.48;70.49;101419.09;10310342;28;20038;-62
2022/02/25 21:46:56;;;;;;;7.40;4.00;;;;;;;5.56;69.87;101413.50;10315372;28;20053;-63
2022/02/25 21:51:58;;;;;;;7.88;5.82;;;;;;;5.46;70.50;101410.34;10309322;28;20045;-62
2022/02/25 21:57:00;;;;;;;5.03;3.67;;;;;;;5.41;70.98;101418.47;10310893;28;20052;-64
2022/02/25 22:02:01;;;;;;;6.38;4.20;;;;;;;5.40;70.77;101426.44;10312394;28;20049;-62
2022/02/25 22:07:04;;;;;;;4.97;4.38;;;;;;;5.43;70.82;101442.16;10303452;28;20074;-62
2022/02/25 22:12:05;;;;;;;5.03;4.00;;;;;;;5.55;70.57;101443.44;10312758;28;20140;-62
2022/02/25 22:17:07;;;;;;;6.53;4.40;;;;;;;5.32;70.52;101434.66;10314558;28;20061;-64
2022/02/25 22:22:11;;;;;;;5.97;4.70;;;;;;;5.44;70.60;101454.44;10310028;28;20050;-64
2022/02/25 22:27:13;;;;;;;7.40;6.05;;;;;;;5.49;70.47;101444.56;10316673;28;20132;-64
2022/02/25 22:32:14;;;;;;;10.05;8.48;;;;;;;5.39;71.40;101457.28;10315630;28;20141;-62
2022/02/25 22:37:16;;;;;;;9.27;7.65;;;;;;;5.40;70.71;101463.41;10313119;28;20187;-63
2022/02/25 22:42:17;;;;;;;12.80;11.07;;;;;;;5.48;70.48;101471.91;10304340;28;20447;-62
2022/02/25 22:47:18;;;;;;;9.90;6.88;;;;;;;5.39;70.49;101472.25;10308864;28;20046;-62
2022/02/25 23:03:10;;;;;;;8.48;5.47;;;;;;;5.28;70.55;101510.50;10314531;28;20057;-61
2022/02/25 23:08:13;;;;;;;7.43;6.07;;;;;;;5.17;71.11;101504.78;10308426;28;20054;-61
2022/02/25 23:13:14;;;;;;;9.40;6.13;;;;;;;5.17;71.11;101510.03;10309504;28;20072;-62
2022/02/25 23:18:16;;;;;;;7.15;5.18;;;;;;;5.13;70.57;101519.00;10315903;28;20050;-63
2022/02/25 23:23:17;;;;;;;11.07;6.30;;;;;;;5.06;70.47;101514.84;10315508;28;20054;-64
2022/02/25 23:28:19;;;;;;;7.68;5.13;;;;;;;5.09;69.78;101530.59;10318066;28;20136;-61
2022/02/25 23:33:20;;;;;;;8.65;4.68;;;;;;;5.03;69.72;101517.59;10319304;28;20060;-61
2022/02/25 23:38:23;;;;;;;9.52;3.85;;;;;;;5.01;69.62;101524.72;10317920;28;20157;-61
2022/02/25 23:43:24;;;;;;;6.88;3.40;;;;;;;4.68;69.68;101528.53;10318061;28;20133;-61
2022/02/25 23:48:26;;;;;;;10.15;3.85;;;;;;;4.57;70.82;101541.25;10317101;28;20133;-63
2022/02/25 23:53:28;;;;;;;10.30;3.53;;;;;;;4.69;70.23;101529.41;10325650;28;20133;-63